Station info - map view · info · telemetry · weather · raw · status · beacons · messages · bulletins · browse · moving · my account
Callsign, ship name or locator: Clear       
It is possible to search using wildcards (*?) after a prefix. Example: OH*
APRS station IK3PQG-9 - show graphs
Map loading...
Mic-E message: En route
Location: 45°32.99' N 11°16.59' E - locator JN55PN31EX - show map - static map
0.3 miles Northwest bearing 331° from Chiampo, Provincia di Vicenza, Veneto, Italy [?]
0.9 miles Southwest bearing 219° from Nogarole Vicentino, Provincia di Vicenza, Veneto, Italy
51.4 miles West bearing 279° from Venice, Provincia di Venezia, Veneto, Italy
73.0 miles North bearing 358° from Bologna, Provincia di Bologna, Emilia-Romagna, Italy
Last position: 2017-01-14 03:42:15 EST (6d 3h30m ago)
2017-01-14 09:42:15 CET local time at Chiampo, Italy [?]
Altitude: 591 ft
Course: 148°
Speed: 25 MPH
Device: Yaesu: FTM-400DR (rig)
Last path: IK3PQG-9>TU3R99 via qAR,IZ3NWP-11
Positions stored: 47258
Packet rate: 61 seconds between packets on average during 3035 seconds.
Other SSIDs: IK3PQG-1 IK3PQG-11 IK3PQG-3 IK3PQG-5
Stations near current position of IK3PQG-9 - show more
callsign distance last heard - EST      callsign distance last heard - EST
IZ3CDH-92.2 miles 340°2017-01-20 00:58:06 IK3PQG-113.4 miles 139°2017-01-20 07:08:35
IZ3PYS-95.6 miles 57°2017-01-20 02:26:14 CW77315.8 miles 67°2017-01-20 07:01:27
DW51946.7 miles 147°2017-01-20 07:04:05 IK3DNV B6.8 miles 176°2017-01-20 06:55:40
IK3DNV-B6.8 miles 176°2017-01-20 06:55:50 IQ3CO7.0 miles 11°2017-01-20 06:31:08
IZ3NWP-137.2 miles 121°2017-01-03 11:58:36 IU3GPR-77.9 miles 175°2017-01-17 00:24:06
IR3UG-C8.0 miles 285°2017-01-17 05:05:23 IR3UG-B8.0 miles 285°2017-01-17 05:05:23
IR3UG B8.0 miles 285°2017-01-17 05:05:37 IR3UG C8.0 miles 285°2017-01-17 05:05:38
IK3FUS8.8 miles 115°2017-01-12 11:31:30 iz3nwp-39.6 miles 121°2017-01-20 07:12:02
iz3nwp9.6 miles 121°2017-01-03 16:50:38 IZ3NWP-WX9.6 miles 121°2017-01-12 06:52:07
IZ3NWP-119.6 miles 121°2017-01-20 07:11:18 IZ3NWP-99.8 miles 123°2017-01-20 05:54:54
Stations which heard IK3PQG-9 directly on radio –
callsign pkts first heard - EST last heard longest (tx => rx) longest at - EST
IR3BT 10 2017-01-01 03:04:43 2017-01-01 03:20:44 JN55OR > JN56MD 29.2 miles 347° 2017-01-01 03:20:44
IK3XTM 1 2017-01-12 03:30:18 2017-01-12 03:30:18 JN55QK > JN55LP 23.9 miles 304° 2017-01-12 03:30:18
IN3RSV 1 2017-01-01 03:11:56 2017-01-01 03:11:56 JN55NR > JN55NV 12.2 miles 356° 2017-01-01 03:11:56
IQ3QR-11 9 2017-01-01 02:07:16 2017-01-07 03:44:28 JN55NR > JN65AS 42.7 miles 85° 2017-01-01 03:16:09
IK3ZGB 1 2017-01-01 02:27:09 2017-01-01 02:27:09 JN55QP > JN55UR 16.6 miles 71° 2017-01-01 02:27:09
IZ6RDB 10 2017-01-01 02:09:01 2017-01-01 03:28:02 JN55OR > JN63SO 187.0 miles 141° 2017-01-01 03:17:18
IZ3LSV-4 3 2017-01-01 02:58:06 2017-01-01 03:33:02 JN55OS > JN65HP 68.3 miles 97° 2017-01-01 03:01:13
IR3AH-11 3 2017-01-01 03:02:24 2017-01-01 03:29:51 JN55OR > JN65UQ 124.4 miles 90° 2017-01-01 03:17:19
IZ3GME-1 1 2017-01-01 02:54:47 2017-01-01 02:54:47 JN55OS > JN55WJ 41.2 miles 126° 2017-01-01 02:54:47
IZ3NWP-11 92 2017-01-01 02:28:18 2017-01-14 03:42:15 JN55OR > JN55RL 21.9 miles 142° 2017-01-01 03:17:18
IR2Y 1 2017-01-01 03:03:33 2017-01-01 03:03:33 JN55OS > JN55EK 45.1 miles 239° 2017-01-01 03:03:33
IK3PQG-11 117 2017-01-01 02:07:14 2017-01-14 03:23:37 JN55QQ > JN55PM 12.8 miles 190° 2017-01-01 02:35:12
IR4BA 2 2017-01-13 10:47:44 2017-01-13 10:49:02 JN55RM > JN54NF 90.3 miles 190° 2017-01-13 10:47:44
IK3ITI 2 2017-01-01 03:16:07 2017-01-14 02:25:42 JN55NR > JN65KS 83.1 miles 88° 2017-01-01 03:16:07
IR2CV 11 2017-01-01 02:17:01 2017-01-14 03:37:38 JN55QQ > JN55JC 50.8 miles 216° 2017-01-01 02:34:21
IQ2CY 1 2017-01-01 03:06:36 2017-01-01 03:06:36 JN55NS > JN55AD 68.9 miles 234° 2017-01-01 03:06:36
IW3FVZ 10 2017-01-01 02:27:43 2017-01-13 09:43:38 JN55NR > JN65AM 45.2 miles 110° 2017-01-01 03:13:27
IR3CA-2 4 2017-01-01 02:27:44 2017-01-07 03:30:48 JN55QM > JN66EA 59.6 miles 54° 2017-01-01 04:12:14
IZ3VIV-15 151 2017-01-01 02:08:30 2017-01-14 03:34:07 JN55OS > JN55PJ 25.4 miles 171° 2017-01-01 02:54:08
IW3FVZ-11 11 2017-01-01 02:33:46 2017-01-13 11:01:00 JN55OS > JN55WH 46.1 miles 133° 2017-01-01 03:04:08
IQ3ME-11 12 2017-01-01 02:36:52 2017-01-14 03:26:42 JN55NR > JN65CL 54.3 miles 108° 2017-01-01 03:08:21
IV3GCH 1 2017-01-01 03:16:42 2017-01-01 03:16:42 JN55NR > JN65KX 83.7 miles 78° 2017-01-01 03:16:42
IR4UCI-11 9 2017-01-01 02:38:11 2017-01-14 03:33:32 JN55OR > JN54MM 85.1 miles 187° 2017-01-01 02:49:46
IZ4AQM 3 2017-01-01 02:16:18 2017-01-07 03:45:26 JN55OS > JN54TD 113.8 miles 169° 2017-01-01 02:53:33
IQ3VO 39 2017-01-01 02:45:59 2017-01-14 03:14:27 JN55SM > JN55MQ 25.9 miles 295° 2017-01-07 03:12:33
IR3AO 4 2017-01-01 02:10:08 2017-01-14 02:26:25 JN55PM > JN56WK 68.5 miles 22° 2017-01-14 02:26:25
T7APRS 1 2017-01-01 03:28:02 2017-01-01 03:28:02 JN55OR > JN63FW 136.7 miles 153° 2017-01-01 03:28:02

Only position packets which were originated by the station are shown here. The range statistics show some extra long hops, because some digipeaters do not correctly add themselves to the digipeater path. Please check the raw packets.
About this site
This page shows real-time information collected from the Automatic Position Reporting System Internet network (APRS-IS). APRS is used by amateur (ham) radio operators to transmit real-time position information, weather data, telemetry and messages over the radio. A vehicle equipped with a GPS receiver, a VHF transmitter or HF transceiver and a small computer device called a tracker transmits it's location, speed and course in a small data packet, which is then received by a nearby iGate receiving site which forwards the packet on the Internet. Systems connected to the Internet can send information on the APRS-IS without a radio transmitter, or collect and display information transmitted anywhere in the world.
FAQ · Blog · Discussion group · Linking to aprs.fi · AIS sites · Service status · Database statistics · Advertising on aprs.fi · Technical details · API · Change log · Planned changes · Credits and thanks · Terms Of Service · iPhone/iPad APRS